createdAt,value
2023-05-04T00:00:56.682Z,96199.94
2023-05-04T00:05:59.048Z,96196.22
2023-05-04T00:11:01.636Z,96202.19
2023-05-04T00:16:04.003Z,96193.69
2023-05-04T00:21:06.458Z,96195.41
2023-05-04T00:26:08.815Z,96187.78
2023-05-04T00:31:11.417Z,96176.44
2023-05-04T00:36:15.096Z,96178.47
2023-05-04T00:41:17.461Z,96177.09
2023-05-04T00:46:19.829Z,96173.81
2023-05-04T00:51:22.222Z,96175.13
2023-05-04T00:56:24.752Z,96173.59
2023-05-04T01:01:27.130Z,96178.50
2023-05-04T01:06:29.491Z,96172.94
2023-05-04T01:11:31.889Z,96182.13
2023-05-04T01:16:34.246Z,96179.38
2023-05-04T01:21:36.915Z,96174.41
2023-05-04T01:26:39.336Z,96175.38
2023-05-04T01:31:41.708Z,96176.41
2023-05-04T01:36:44.030Z,96174.81
2023-05-04T01:41:46.441Z,96165.56
2023-05-04T01:46:48.779Z,96172.78
2023-05-04T01:51:51.093Z,96172.53
2023-05-04T01:56:53.479Z,96167.56
2023-05-04T02:01:56.134Z,96171.25
2023-05-04T02:06:58.514Z,96165.22
2023-05-04T02:12:00.831Z,96164.78
2023-05-04T02:17:03.256Z,96167.94
2023-05-04T02:22:05.723Z,96170.28
2023-05-04T02:27:08.262Z,96174.72
2023-05-04T02:32:10.638Z,96171.38
2023-05-04T02:37:13.087Z,96163.91
2023-05-04T02:42:16.263Z,96166.03
2023-05-04T02:47:18.608Z,96161.81
2023-05-04T02:52:21.025Z,96166.25
2023-05-04T02:57:23.515Z,96168.44
2023-05-04T03:02:25.960Z,96165.34
2023-05-04T03:07:28.435Z,96173.50
2023-05-04T03:12:30.897Z,96172.09
2023-05-04T03:17:33.306Z,96166.88
2023-05-04T03:22:35.880Z,96169.31
2023-05-04T03:27:38.254Z,96169.69
2023-05-04T03:32:40.634Z,96165.53
2023-05-04T03:37:43.212Z,96167.94
2023-05-04T03:42:45.518Z,96171.19
2023-05-04T03:47:47.939Z,96162.16
2023-05-04T03:52:50.279Z,96162.03
2023-05-04T03:57:52.611Z,96158.78
2023-05-04T04:02:55.035Z,96158.09
2023-05-04T04:07:57.469Z,96163.19
2023-05-04T04:12:59.979Z,96158.63
2023-05-04T04:18:02.441Z,96166.88
2023-05-04T04:23:04.859Z,96158.69
2023-05-04T04:28:07.328Z,96147.81
2023-05-04T04:33:10.202Z,96154.13
2023-05-04T04:38:12.632Z,96147.69
2023-05-04T04:43:14.992Z,96150.63
2023-05-04T04:48:18.638Z,96149.84
2023-05-04T04:53:21.097Z,96149.44
2023-05-04T04:58:23.696Z,96136.06
2023-05-04T05:03:26.040Z,96138.50
2023-05-04T05:08:28.380Z,96145.56
2023-05-04T05:13:31.019Z,96136.84
2023-05-04T05:18:33.833Z,96136.75
2023-05-04T05:23:36.432Z,96134.31
2023-05-04T05:28:39.364Z,96134.63
2023-05-04T05:33:42.103Z,96138.50
2023-05-04T05:38:44.933Z,96135.00
2023-05-04T05:43:47.805Z,96130.97
2023-05-04T05:48:50.612Z,96136.06
2023-05-04T05:53:53.218Z,96135.84
2023-05-04T05:58:56.464Z,96147.09
2023-05-04T06:03:59.343Z,96136.44
2023-05-04T06:09:02.266Z,96139.25
2023-05-04T06:14:05.033Z,96136.34
2023-05-04T06:19:07.816Z,96139.66
2023-05-04T06:24:10.350Z,96137.16
2023-05-04T06:29:12.683Z,96137.31
2023-05-04T06:34:15.065Z,96128.91
2023-05-04T06:39:17.471Z,96115.41
2023-05-04T06:44:20.307Z,96116.28
2023-05-04T06:49:23.086Z,96111.72
2023-05-04T06:54:25.798Z,96108.22
2023-05-04T06:59:28.995Z,96102.50
2023-05-04T07:04:31.624Z,96106.50
2023-05-04T07:09:34.013Z,96098.72
2023-05-04T07:14:36.882Z,96099.41
2023-05-04T07:19:39.602Z,96095.00
2023-05-04T07:24:42.622Z,96104.00
2023-05-04T07:29:44.993Z,96095.38
2023-05-04T07:34:47.777Z,96089.34
2023-05-04T07:39:50.150Z,96099.03
2023-05-04T07:44:52.767Z,96088.47
2023-05-04T07:49:55.501Z,96090.50
2023-05-04T07:54:58.229Z,96095.34
2023-05-04T08:00:01.399Z,96087.47
2023-05-04T08:05:04.230Z,96079.81
2023-05-04T08:10:07.200Z,96081.69
2023-05-04T08:15:10.704Z,96074.53
2023-05-04T08:20:13.364Z,96076.72
2023-05-04T08:25:15.928Z,96077.00
2023-05-04T08:30:18.319Z,96076.25
2023-05-04T08:35:21.148Z,96074.06
2023-05-04T08:40:24.145Z,96075.38
2023-05-04T08:45:27.222Z,96069.91
2023-05-04T08:50:29.954Z,96074.41
2023-05-04T08:55:32.978Z,96065.13
2023-05-04T09:00:36.907Z,96067.19
2023-05-04T09:05:39.812Z,96061.38
2023-05-04T09:10:42.679Z,96051.72
2023-05-04T09:15:45.270Z,96058.72
2023-05-04T09:20:48.162Z,96055.31
2023-05-04T09:25:50.565Z,96062.16
2023-05-04T09:30:53.329Z,96047.50
2023-05-04T09:35:56.036Z,96043.66
2023-05-04T09:40:59.062Z,96040.88
2023-05-04T09:46:01.785Z,96036.88
2023-05-04T09:51:06.629Z,96036.66
2023-05-04T09:56:09.951Z,96035.66
2023-05-04T10:01:12.386Z,96028.63
2023-05-04T10:06:14.764Z,96018.91
2023-05-04T10:11:19.358Z,96014.56
2023-05-04T10:16:24.626Z,96012.63
2023-05-04T10:21:27.495Z,96012.53
2023-05-04T10:26:30.252Z,96011.41
2023-05-04T10:31:33.077Z,96010.16
2023-05-04T10:36:35.454Z,96008.63
2023-05-04T10:41:38.339Z,95994.84
2023-05-04T10:46:41.311Z,96005.19
2023-05-04T10:51:49.447Z,95997.97
2023-05-04T10:56:52.568Z,95987.56
2023-05-04T11:01:55.277Z,96003.50
2023-05-04T11:06:57.978Z,95994.69
2023-05-04T11:12:01.173Z,95980.00
2023-05-04T11:17:07.378Z,95973.97
2023-05-04T11:22:15.049Z,95970.25
2023-05-04T11:27:17.508Z,95969.81
2023-05-04T11:32:20.094Z,95970.09
2023-05-04T11:37:23.314Z,95954.09
2023-05-04T11:42:26.520Z,95949.09
2023-05-04T11:47:29.649Z,95946.84
2023-05-04T11:52:33.933Z,95934.50
2023-05-04T11:57:37.358Z,95948.66
2023-05-04T12:02:39.813Z,95930.34
2023-05-04T12:07:42.266Z,95918.31
2023-05-04T12:12:44.721Z,95914.59
2023-05-04T12:17:47.063Z,95901.78
2023-05-04T12:22:49.869Z,95907.22
2023-05-04T12:27:52.254Z,95895.34
2023-05-04T12:32:54.671Z,95897.00
2023-05-04T12:37:57.424Z,95889.78
2023-05-04T12:42:59.805Z,95888.63
2023-05-04T12:48:02.357Z,95882.88
2023-05-04T12:53:05.000Z,95875.50
2023-05-04T12:58:07.642Z,95878.50
2023-05-04T13:03:12.476Z,95872.78
2023-05-04T13:08:15.183Z,95867.25
2023-05-04T13:13:17.846Z,95864.16
2023-05-04T13:18:20.519Z,95862.75
2023-05-04T13:23:22.951Z,95856.63
2023-05-04T13:28:25.478Z,95853.53
2023-05-04T13:33:29.913Z,95842.50
2023-05-04T13:38:33.342Z,95842.34
2023-05-04T13:43:35.744Z,95829.84
2023-05-04T13:48:38.269Z,95825.44
2023-05-04T13:53:40.840Z,95820.56
2023-05-04T13:58:43.523Z,95812.38
2023-05-04T14:03:45.905Z,95808.41
2023-05-04T14:08:48.334Z,95804.31
2023-05-04T14:13:51.594Z,95802.72
2023-05-04T14:18:54.105Z,95798.53
2023-05-04T14:23:56.419Z,95783.44
2023-05-04T14:28:58.766Z,95791.25
2023-05-04T14:34:01.073Z,95784.00
2023-05-04T14:39:03.605Z,95784.94
2023-05-04T14:44:06.370Z,95784.78
2023-05-04T14:49:08.996Z,95783.91
2023-05-04T14:54:11.626Z,95778.56
2023-05-04T14:59:14.088Z,95780.22
2023-05-04T15:04:17.045Z,95778.72
2023-05-04T15:09:19.409Z,95791.28
2023-05-04T15:14:21.790Z,95781.75
2023-05-04T15:19:24.177Z,95773.78
2023-05-04T15:24:26.558Z,95777.16
2023-05-04T15:29:28.914Z,95768.63
2023-05-04T15:34:31.517Z,95767.00
2023-05-04T15:39:33.892Z,95767.09
2023-05-04T15:44:36.269Z,95753.56
2023-05-04T15:49:38.864Z,95763.03
2023-05-04T15:54:41.269Z,95764.59
2023-05-04T15:59:43.918Z,95761.47
2023-05-04T16:04:46.290Z,95767.75
2023-05-04T16:09:50.250Z,95760.50
2023-05-04T16:14:53.010Z,95763.44
2023-05-04T16:19:55.440Z,95751.34
2023-05-04T16:24:58.418Z,95746.78
2023-05-04T16:30:00.854Z,95752.16
2023-05-04T16:35:03.497Z,95737.13
2023-05-04T16:40:06.136Z,95731.69
2023-05-04T16:45:09.507Z,95743.41
2023-05-04T16:50:11.997Z,95746.50
2023-05-04T16:55:14.450Z,95744.09
2023-05-04T17:00:17.032Z,95734.69
2023-05-04T17:05:19.696Z,95740.13
2023-05-04T17:10:22.079Z,95732.81
2023-05-04T17:15:24.832Z,95729.31
2023-05-04T17:20:30.727Z,95729.28
2023-05-04T17:25:34.332Z,95731.19
2023-05-04T17:30:37.266Z,95728.78
2023-05-04T17:35:39.792Z,95728.91
2023-05-04T17:40:42.654Z,95732.72
2023-05-04T17:45:45.449Z,95748.31
2023-05-04T17:50:47.902Z,95736.72
2023-05-04T17:55:50.405Z,95744.16
2023-05-04T18:00:53.375Z,95755.25
2023-05-04T18:05:56.584Z,95753.25
2023-05-04T18:10:59.308Z,95751.59
2023-05-04T18:16:01.742Z,95755.31
2023-05-04T18:21:04.548Z,95756.16
2023-05-04T18:26:06.965Z,95761.91
2023-05-04T18:31:10.007Z,95766.66
2023-05-04T18:36:12.398Z,95778.03
2023-05-04T18:41:14.886Z,95775.75
2023-05-04T18:46:17.302Z,95785.09
2023-05-04T18:51:20.372Z,95784.38
2023-05-04T18:56:22.876Z,95783.78
2023-05-04T19:01:26.417Z,95790.00
2023-05-04T19:06:29.371Z,95803.69
2023-05-04T19:11:32.388Z,95810.59
2023-05-04T19:16:34.740Z,95815.31
2023-05-04T19:21:37.301Z,95811.28
2023-05-04T19:26:41.230Z,95815.19
2023-05-04T19:31:43.690Z,95811.47
2023-05-04T19:36:46.249Z,95810.88
2023-05-04T19:41:49.010Z,95812.44
2023-05-04T19:46:52.457Z,95814.56
2023-05-04T19:51:55.825Z,95817.03
2023-05-04T19:56:58.347Z,95814.06
2023-05-04T20:02:01.536Z,95810.97
2023-05-04T20:07:04.360Z,95822.63
2023-05-04T20:12:06.926Z,95819.41
2023-05-04T20:17:09.638Z,95821.00
2023-05-04T20:22:12.039Z,95811.81
2023-05-04T20:27:14.448Z,95816.88
2023-05-04T20:32:17.034Z,95819.41
2023-05-04T20:37:19.601Z,95814.44
2023-05-04T20:42:22.402Z,95814.31
2023-05-04T20:47:24.933Z,95810.50
2023-05-04T20:52:28.205Z,95818.03
2023-05-04T20:57:30.950Z,95810.75
2023-05-04T21:02:33.697Z,95810.09
2023-05-04T21:07:36.404Z,95796.13
2023-05-04T21:12:39.384Z,95800.16
2023-05-04T21:17:42.317Z,95809.91
2023-05-04T21:22:45.114Z,95803.50
2023-05-04T21:27:47.966Z,95802.25
2023-05-04T21:32:50.985Z,95793.94
2023-05-04T21:37:53.334Z,95792.38
2023-05-04T21:42:56.179Z,95794.34
2023-05-04T21:47:59.612Z,95792.00
2023-05-04T21:53:02.588Z,95783.16
2023-05-04T21:58:05.060Z,95786.31
2023-05-04T22:03:08.736Z,95784.78
2023-05-04T22:08:11.126Z,95786.72
2023-05-04T22:13:13.991Z,95782.72
2023-05-04T22:18:17.111Z,95778.69
2023-05-04T22:23:20.010Z,95771.97
2023-05-04T22:28:23.158Z,95770.66
2023-05-04T22:33:25.816Z,95768.00
2023-05-04T22:38:29.182Z,95772.63
2023-05-04T22:43:31.525Z,95773.19
2023-05-04T22:48:34.800Z,95781.25
2023-05-04T22:53:37.317Z,95784.22
2023-05-04T22:58:40.413Z,95774.03
2023-05-04T23:03:44.677Z,95785.31
2023-05-04T23:08:47.725Z,95783.44
2023-05-04T23:13:51.282Z,95789.38
2023-05-04T23:18:54.368Z,95794.75
2023-05-04T23:23:57.334Z,95798.00
2023-05-04T23:29:00.083Z,95798.81
2023-05-04T23:34:02.646Z,95795.31
2023-05-04T23:39:05.156Z,95789.94
2023-05-04T23:44:08.391Z,95788.91
2023-05-04T23:49:10.753Z,95782.69
2023-05-04T23:54:13.182Z,95789.69
2023-05-04T23:59:15.608Z,95784.84
